Celestyal Olympia — 9HA3027 — position and weather

sailwx.info

Track history (hours):
 
Tides and Currents Weather Stations Pressure Air Temp Water Temp Dewpoint Dewpoint Depression Visibility Wind Speed Wind Dir Waves Ship Positions

Celestyal Olympia

Last reported at 2017-Oct-16 22:27 UTC. Time now 2017-Oct-19 18:27 UTC.
Position N 37°39' E 025°53'.

Length 215 m; draft 7 m.

Type: Passenger vessel. MMSI: 229051000.

Date/timePositionNaut miles runAvg speedWind from/ knotsBaromVisibWave heightAir tempDewpointWater temp
2017-Oct-16 22:27N 37°39' E 025°53'612.1
2017-Oct-16 22:00N 37°37' E 025°46'612.5
2017-Oct-16 21:30N 37°36' E 025°39'612.7
2017-Oct-16 21:01N 37°34' E 025°31'612.8
2017-Oct-16 20:30N 37°32' E 025°23'510.8
2017-Oct-16 20:00N 37°28' E 025°19'1 1.8
2017-Oct-16 19:30N 37°27' E 025°19'0 0.0
2017-Oct-16 19:00N 37°27' E 025°19'0 0.0
2017-Oct-16 18:27N 37°27' E 025°19'0 0.0
2017-Oct-16 18:00N 37°27' E 025°19'0 0.0
2017-Oct-16 17:30N 37°27' E 025°19'0 0.0
2017-Oct-16 16:57N 37°27' E 025°19'0 0.0
2017-Oct-16 16:30N 37°27' E 025°19'0 0.0
2017-Oct-16 16:00N 37°27' E 025°19'0 0.1
2017-Oct-16 15:30N 37°27' E 025°20'3 6.7
2017-Oct-16 15:00N 37°28' E 025°15'1616.0
2017-Oct-16 14:01N 37°32' E 024°56'816.2
2017-Oct-16 13:31N 37°32' E 024°46'4115.2
2017-Oct-16 10:47N 37°36' E 023°54'416.4
2017-Oct-16 10:30N 37°37' E 023°48'815.7
2017-Oct-16 10:00N 37°42' E 023°41'816.7
2017-Oct-16 09:31N 37°50' E 023°37'713.0
2017-Oct-16 09:00N 37°56' E 023°38'0 0.3
2017-Oct-16 08:29N 37°56' E 023°38'0 0.0
2017-Oct-16 07:56N 37°56' E 023°38'0 0.0
2017-Oct-16 07:29N 37°56' E 023°38'0 0.0
2017-Oct-16 06:59N 37°56' E 023°38'0 0.0
2017-Oct-16 06:29N 37°56' E 023°38'0 0.0
2017-Oct-16 05:59N 37°56' E 023°38'0 0.0
2017-Oct-16 05:29N 37°56' E 023°38'0 0.0
2017-Oct-16 04:59N 37°56' E 023°38'0 0.0
2017-Oct-16 04:26N 37°56' E 023°38'0 0.0
2017-Oct-16 04:00N 37°56' E 023°38'0 0.4
2017-Oct-16 03:31N 37°56' E 023°38'2 3.6
2017-Oct-16 03:00N 37°55' E 023°37'4 7.8
2017-Oct-16 02:31N 37°51' E 023°39'816.4
2017-Oct-16 02:01N 37°44' E 023°43'816.4
2017-Oct-16 01:31N 37°37' E 023°49'98 1.9
2017-Oct-13 22:15N 37°39' E 025°53'310.7
2017-Oct-13 22:00N 37°38' E 025°50'611.0
2017-Oct-13 21:30N 37°37' E 025°43'511.0
2017-Oct-13 21:00N 37°35' E 025°36'611.5
2017-Oct-13 20:30N 37°33' E 025°29'612.3
2017-Oct-13 20:00N 37°31' E 025°22'4 8.4
2017-Oct-13 19:30N 37°28' E 025°19'0 0.1
2017-Oct-13 18:59N 37°28' E 025°19'0 0.0
2017-Oct-13 18:29N 37°28' E 025°19'0 0.0
2017-Oct-13 17:59N 37°28' E 025°19'0 0.0
2017-Oct-13 17:29N 37°28' E 025°19'0 0.0
2017-Oct-13 16:59N 37°28' E 025°19'0 0.0
2017-Oct-13 16:29N 37°28' E 025°19'0 0.0
2017-Oct-13 15:59N 37°28' E 025°19'0 0.0
2017-Oct-13 15:29N 37°28' E 025°19'0 0.9
2017-Oct-13 15:01N 37°28' E 025°19'815.2
2017-Oct-13 14:30N 37°29' E 025°10'916.3
2017-Oct-13 13:58N 37°31' E 024°59'715.9
2017-Oct-13 13:30N 37°32' E 024°50'4515.4
2017-Oct-13 10:35N 37°36' E 023°53'116.3
2017-Oct-13 10:30N 37°37' E 023°51'815.6
2017-Oct-13 10:00N 37°39' E 023°42'816.5
2017-Oct-13 09:30N 37°47' E 023°38'816.1
2017-Oct-13 09:00N 37°55' E 023°37'1 2.7
2017-Oct-13 08:28N 37°56' E 023°38'0 0.0
2017-Oct-13 07:58N 37°56' E 023°38'0 0.0
2017-Oct-13 07:28N 37°56' E 023°38'0 0.0
2017-Oct-13 06:55N 37°56' E 023°38'0 0.0
2017-Oct-13 06:28N 37°56' E 023°38'0 0.0
2017-Oct-13 05:58N 37°56' E 023°38'0 0.0
2017-Oct-13 05:28N 37°56' E 023°38'0 0.0
2017-Oct-13 04:58N 37°56' E 023°38'0 0.0
2017-Oct-13 04:28N 37°56' E 023°38'0 0.0
2017-Oct-13 03:58N 37°56' E 023°38'0 0.2
2017-Oct-13 03:31N 37°56' E 023°38'2 3.2
2017-Oct-13 03:00N 37°55' E 023°37'3 5.8
2017-Oct-13 02:30N 37°53' E 023°38'510.8
2017-Oct-13 02:00N 37°48' E 023°41'714.1
2017-Oct-13 01:30N 37°42' E 023°45'815.7
2017-Oct-13 01:00N 37°36' E 023°52'  
2017-Oct-09 22:12N 37°39' E 025°53'211.4
2017-Oct-09 22:00N 37°38' E 025°50'611.7
2017-Oct-09 21:30N 37°37' E 025°43'612.1
2017-Oct-09 21:00N 37°35' E 025°36'612.2
2017-Oct-09 20:30N 37°33' E 025°28'611.7
2017-Oct-09 20:00N 37°31' E 025°21'4 7.8
2017-Oct-09 19:28N 37°27' E 025°19'0 0.2
2017-Oct-09 18:58N 37°27' E 025°19'0 0.0
2017-Oct-09 18:28N 37°27' E 025°19'0 0.0
2017-Oct-09 17:58N 37°27' E 025°19'0 0.0
2017-Oct-09 17:28N 37°27' E 025°19'0 0.0
2017-Oct-09 16:58N 37°27' E 025°19'0 0.0
2017-Oct-09 16:28N 37°27' E 025°19'0 0.0
2017-Oct-09 15:58N 37°27' E 025°19'0 0.0
2017-Oct-09 15:28N 37°27' E 025°19'0 0.1
2017-Oct-09 14:58N 37°27' E 025°19'3 6.2
2017-Oct-09 14:30N 37°28' E 025°16'816.8
2017-Oct-09 14:00N 37°30' E 025°06'816.5
2017-Oct-09 13:30N 37°32' E 024°56'816.6
2017-Oct-09 13:00N 37°32' E 024°45'4116.4
2017-Oct-09 10:30N 37°37' E 023°54'816.8
2017-Oct-09 10:00N 37°39' E 023°44'816.7
2017-Oct-09 09:30N 37°47' E 023°39'816.4
2017-Oct-09 09:00N 37°55' E 023°37'2 3.2
2017-Oct-09 08:29N 37°56' E 023°38'0 0.0
2017-Oct-09 07:59N 37°56' E 023°38'0 0.0
2017-Oct-09 07:29N 37°56' E 023°38'0 0.0
2017-Oct-09 06:59N 37°56' E 023°38'0 0.0
2017-Oct-09 06:29N 37°56' E 023°38'0 0.0
2017-Oct-09 05:59N 37°56' E 023°38'0 0.0
2017-Oct-09 05:29N 37°56' E 023°38'0 0.0
2017-Oct-09 04:59N 37°56' E 023°38'0 0.0
2017-Oct-09 04:29N 37°56' E 023°38'0 0.0
2017-Oct-09 03:59N 37°56' E 023°38'0 0.0
2017-Oct-09 03:29N 37°56' E 023°38'0 0.0
2017-Oct-09 02:59N 37°56' E 023°38'0 0.0
2017-Oct-09 02:29N 37°56' E 023°38'1 2.5
2017-Oct-09 02:00N 37°56' E 023°37'714.9
2017-Oct-09 01:30N 37°49' E 023°40'816.6
2017-Oct-09 01:00N 37°42' E 023°45'  
Track history (hours):
 
Tides and Currents Weather Stations Pressure Air Temp Water Temp Dewpoint Dewpoint Depression Visibility Wind Speed Wind Dir Waves Ship Positions

Celestyal Olympia

Last reported at 2017-Oct-16 22:27 UTC. Time now 2017-Oct-19 18:27 UTC.
Position N 37°39' E 025°53'.

Length 215 m; draft 7 m.

Type: Passenger vessel. MMSI: 229051000.

Date/timePositionNaut miles runAvg speedWind from/ knotsBaromVisibWave heightAir tempDewpointWater temp
2017-Oct-16 22:27N 37°39' E 025°53'612.1
2017-Oct-16 22:00N 37°37' E 025°46'612.5
2017-Oct-16 21:30N 37°36' E 025°39'612.7
2017-Oct-16 21:01N 37°34' E 025°31'612.8
2017-Oct-16 20:30N 37°32' E 025°23'510.8
2017-Oct-16 20:00N 37°28' E 025°19'1 1.8
2017-Oct-16 19:30N 37°27' E 025°19'0 0.0
2017-Oct-16 19:00N 37°27' E 025°19'0 0.0
2017-Oct-16 18:27N 37°27' E 025°19'0 0.0
2017-Oct-16 18:00N 37°27' E 025°19'0 0.0
2017-Oct-16 17:30N 37°27' E 025°19'0 0.0
2017-Oct-16 16:57N 37°27' E 025°19'0 0.0
2017-Oct-16 16:30N 37°27' E 025°19'0 0.0
2017-Oct-16 16:00N 37°27' E 025°19'0 0.1
2017-Oct-16 15:30N 37°27' E 025°20'3 6.7
2017-Oct-16 15:00N 37°28' E 025°15'1616.0
2017-Oct-16 14:01N 37°32' E 024°56'816.2
2017-Oct-16 13:31N 37°32' E 024°46'4115.2
2017-Oct-16 10:47N 37°36' E 023°54'416.4
2017-Oct-16 10:30N 37°37' E 023°48'815.7
2017-Oct-16 10:00N 37°42' E 023°41'816.7
2017-Oct-16 09:31N 37°50' E 023°37'713.0
2017-Oct-16 09:00N 37°56' E 023°38'0 0.3
2017-Oct-16 08:29N 37°56' E 023°38'0 0.0
2017-Oct-16 07:56N 37°56' E 023°38'0 0.0
2017-Oct-16 07:29N 37°56' E 023°38'0 0.0
2017-Oct-16 06:59N 37°56' E 023°38'0 0.0
2017-Oct-16 06:29N 37°56' E 023°38'0 0.0
2017-Oct-16 05:59N 37°56' E 023°38'0 0.0
2017-Oct-16 05:29N 37°56' E 023°38'0 0.0
2017-Oct-16 04:59N 37°56' E 023°38'0 0.0
2017-Oct-16 04:26N 37°56' E 023°38'0 0.0
2017-Oct-16 04:00N 37°56' E 023°38'0 0.4
2017-Oct-16 03:31N 37°56' E 023°38'2 3.6
2017-Oct-16 03:00N 37°55' E 023°37'4 7.8
2017-Oct-16 02:31N 37°51' E 023°39'816.4
2017-Oct-16 02:01N 37°44' E 023°43'816.4
2017-Oct-16 01:31N 37°37' E 023°49'98 1.9
2017-Oct-13 22:15N 37°39' E 025°53'310.7
2017-Oct-13 22:00N 37°38' E 025°50'611.0
2017-Oct-13 21:30N 37°37' E 025°43'511.0
2017-Oct-13 21:00N 37°35' E 025°36'611.5
2017-Oct-13 20:30N 37°33' E 025°29'612.3
2017-Oct-13 20:00N 37°31' E 025°22'4 8.4
2017-Oct-13 19:30N 37°28' E 025°19'0 0.1
2017-Oct-13 18:59N 37°28' E 025°19'0 0.0
2017-Oct-13 18:29N 37°28' E 025°19'0 0.0
2017-Oct-13 17:59N 37°28' E 025°19'0 0.0
2017-Oct-13 17:29N 37°28' E 025°19'0 0.0
2017-Oct-13 16:59N 37°28' E 025°19'0 0.0
2017-Oct-13 16:29N 37°28' E 025°19'0 0.0
2017-Oct-13 15:59N 37°28' E 025°19'0 0.0
2017-Oct-13 15:29N 37°28' E 025°19'0 0.9
2017-Oct-13 15:01N 37°28' E 025°19'815.2
2017-Oct-13 14:30N 37°29' E 025°10'916.3
2017-Oct-13 13:58N 37°31' E 024°59'715.9
2017-Oct-13 13:30N 37°32' E 024°50'4515.4
2017-Oct-13 10:35N 37°36' E 023°53'116.3
2017-Oct-13 10:30N 37°37' E 023°51'815.6
2017-Oct-13 10:00N 37°39' E 023°42'816.5
2017-Oct-13 09:30N 37°47' E 023°38'816.1
2017-Oct-13 09:00N 37°55' E 023°37'1 2.7
2017-Oct-13 08:28N 37°56' E 023°38'0 0.0
2017-Oct-13 07:58N 37°56' E 023°38'0 0.0
2017-Oct-13 07:28N 37°56' E 023°38'0 0.0
2017-Oct-13 06:55N 37°56' E 023°38'0 0.0
2017-Oct-13 06:28N 37°56' E 023°38'0 0.0
2017-Oct-13 05:58N 37°56' E 023°38'0 0.0
2017-Oct-13 05:28N 37°56' E 023°38'0 0.0
2017-Oct-13 04:58N 37°56' E 023°38'0 0.0
2017-Oct-13 04:28N 37°56' E 023°38'0 0.0
2017-Oct-13 03:58N 37°56' E 023°38'0 0.2
2017-Oct-13 03:31N 37°56' E 023°38'2 3.2
2017-Oct-13 03:00N 37°55' E 023°37'3 5.8
2017-Oct-13 02:30N 37°53' E 023°38'510.8
2017-Oct-13 02:00N 37°48' E 023°41'714.1
2017-Oct-13 01:30N 37°42' E 023°45'815.7
2017-Oct-13 01:00N 37°36' E 023°52'  
2017-Oct-09 22:12N 37°39' E 025°53'211.4
2017-Oct-09 22:00N 37°38' E 025°50'611.7
2017-Oct-09 21:30N 37°37' E 025°43'612.1
2017-Oct-09 21:00N 37°35' E 025°36'612.2
2017-Oct-09 20:30N 37°33' E 025°28'611.7
2017-Oct-09 20:00N 37°31' E 025°21'4 7.8
2017-Oct-09 19:28N 37°27' E 025°19'0 0.2
2017-Oct-09 18:58N 37°27' E 025°19'0 0.0
2017-Oct-09 18:28N 37°27' E 025°19'0 0.0
2017-Oct-09 17:58N 37°27' E 025°19'0 0.0
2017-Oct-09 17:28N 37°27' E 025°19'0 0.0
2017-Oct-09 16:58N 37°27' E 025°19'0 0.0
2017-Oct-09 16:28N 37°27' E 025°19'0 0.0
2017-Oct-09 15:58N 37°27' E 025°19'0 0.0
2017-Oct-09 15:28N 37°27' E 025°19'0 0.1
2017-Oct-09 14:58N 37°27' E 025°19'3 6.2
2017-Oct-09 14:30N 37°28' E 025°16'816.8
2017-Oct-09 14:00N 37°30' E 025°06'816.5
2017-Oct-09 13:30N 37°32' E 024°56'816.6
2017-Oct-09 13:00N 37°32' E 024°45'4116.4
2017-Oct-09 10:30N 37°37' E 023°54'816.8
2017-Oct-09 10:00N 37°39' E 023°44'816.7
2017-Oct-09 09:30N 37°47' E 023°39'816.4
2017-Oct-09 09:00N 37°55' E 023°37'2 3.2
2017-Oct-09 08:29N 37°56' E 023°38'0 0.0
2017-Oct-09 07:59N 37°56' E 023°38'0 0.0
2017-Oct-09 07:29N 37°56' E 023°38'0 0.0
2017-Oct-09 06:59N 37°56' E 023°38'0 0.0
2017-Oct-09 06:29N 37°56' E 023°38'0 0.0
2017-Oct-09 05:59N 37°56' E 023°38'0 0.0
2017-Oct-09 05:29N 37°56' E 023°38'0 0.0
2017-Oct-09 04:59N 37°56' E 023°38'0 0.0
2017-Oct-09 04:29N 37°56' E 023°38'0 0.0
2017-Oct-09 03:59N 37°56' E 023°38'0 0.0
2017-Oct-09 03:29N 37°56' E 023°38'0 0.0
2017-Oct-09 02:59N 37°56' E 023°38'0 0.0
2017-Oct-09 02:29N 37°56' E 023°38'1 2.5
2017-Oct-09 02:00N 37°56' E 023°37'714.9
2017-Oct-09 01:30N 37°49' E 023°40'816.6
2017-Oct-09 01:00N 37°42' E 023°45'  

Dump ship's entire track history